createdAt,value
2017-08-13T00:00:17.685Z,7.77
2017-08-13T00:02:44.102Z,6.80
2017-08-13T00:05:10.458Z,5.77
2017-08-13T00:07:36.844Z,6.50
2017-08-13T00:10:03.237Z,6.13
2017-08-13T00:12:29.618Z,6.63
2017-08-13T00:14:55.998Z,6.93
2017-08-13T00:17:22.369Z,7.40
2017-08-13T00:19:48.760Z,6.83
2017-08-13T00:22:15.139Z,7.13
2017-08-13T00:24:41.544Z,5.93
2017-08-13T00:27:07.909Z,6.80
2017-08-13T00:29:34.303Z,7.20
2017-08-13T00:32:00.697Z,5.33
2017-08-13T00:34:27.085Z,4.83
2017-08-13T00:36:53.451Z,7.00
2017-08-13T00:39:19.827Z,6.27
2017-08-13T00:41:46.229Z,7.90
2017-08-13T00:44:12.637Z,7.53
2017-08-13T00:46:39.020Z,8.07
2017-08-13T00:49:05.437Z,7.53
2017-08-13T00:51:31.878Z,8.77
2017-08-13T00:53:58.267Z,9.13
2017-08-13T00:56:24.677Z,9.37
2017-08-13T00:58:51.084Z,7.43
2017-08-13T01:01:17.507Z,8.73
2017-08-13T01:03:43.870Z,7.40
2017-08-13T01:06:10.235Z,8.00
2017-08-13T01:08:36.615Z,8.23
2017-08-13T01:11:03.021Z,8.67
2017-08-13T01:13:29.405Z,10.10
2017-08-13T01:15:55.792Z,7.77
2017-08-13T01:18:22.139Z,8.53
2017-08-13T01:20:48.570Z,8.23
2017-08-13T01:23:14.960Z,9.90
2017-08-13T01:25:41.327Z,8.50
2017-08-13T01:28:07.718Z,9.40
2017-08-13T01:30:34.105Z,9.30
2017-08-13T01:33:00.484Z,8.80
2017-08-13T01:35:26.864Z,10.73
2017-08-13T01:37:53.233Z,10.57
2017-08-13T01:40:19.631Z,10.30
2017-08-13T01:42:46.015Z,10.37
2017-08-13T01:45:12.424Z,11.47
2017-08-13T01:47:38.800Z,10.33
2017-08-13T01:50:05.172Z,10.57
2017-08-13T01:52:31.543Z,10.27
2017-08-13T01:54:57.905Z,10.80
2017-08-13T01:57:24.281Z,9.90
2017-08-13T01:59:50.670Z,10.93
2017-08-13T02:02:17.036Z,8.87
2017-08-13T02:04:43.416Z,10.10
2017-08-13T02:07:09.769Z,9.77
2017-08-13T02:09:36.118Z,10.67
2017-08-13T02:12:02.527Z,11.80
2017-08-13T02:14:28.893Z,14.10
2017-08-13T02:16:55.277Z,9.30
2017-08-13T02:19:21.648Z,11.00
2017-08-13T02:21:48.043Z,12.03
2017-08-13T02:24:14.426Z,11.40
2017-08-13T02:26:40.797Z,11.63
2017-08-13T02:29:07.177Z,12.80
2017-08-13T02:31:33.569Z,12.13
2017-08-13T02:33:59.955Z,12.60
2017-08-13T02:36:26.333Z,11.90
2017-08-13T02:38:52.711Z,13.57
2017-08-13T02:41:19.084Z,13.37
2017-08-13T02:43:45.466Z,13.00
2017-08-13T02:46:11.879Z,13.40
2017-08-13T02:48:38.248Z,13.50
2017-08-13T02:51:04.613Z,12.73
2017-08-13T02:53:30.976Z,14.30
2017-08-13T02:55:57.318Z,14.30
2017-08-13T02:58:23.683Z,14.50
2017-08-13T03:00:50.082Z,16.70
2017-08-13T03:03:16.484Z,14.83
2017-08-13T03:05:42.839Z,16.97
2017-08-13T03:08:09.209Z,14.67
2017-08-13T03:10:35.571Z,14.47
2017-08-13T03:13:01.942Z,14.87
2017-08-13T03:15:28.316Z,13.53
2017-08-13T03:17:54.711Z,15.37
2017-08-13T03:20:21.118Z,13.57
2017-08-13T03:22:47.485Z,16.27
2017-08-13T03:25:13.847Z,13.00
2017-08-13T03:27:40.213Z,14.80
2017-08-13T03:30:06.570Z,15.03
2017-08-13T03:32:32.939Z,13.97
2017-08-13T03:34:59.324Z,15.83
2017-08-13T03:37:25.685Z,15.50
2017-08-13T03:39:52.067Z,16.60
2017-08-13T03:42:18.434Z,17.47
2017-08-13T03:44:44.826Z,13.50
2017-08-13T03:47:11.217Z,13.60
2017-08-13T03:49:37.579Z,14.10
2017-08-13T03:52:03.960Z,14.67
2017-08-13T03:54:30.303Z,13.33
2017-08-13T03:56:56.690Z,12.20
2017-08-13T03:59:23.061Z,12.23
2017-08-13T04:01:49.421Z,12.60
2017-08-13T04:04:15.797Z,12.00
2017-08-13T04:06:45.762Z,11.70
2017-08-13T04:09:12.132Z,13.87
2017-08-13T04:11:38.578Z,14.50
2017-08-13T04:14:04.936Z,14.60
2017-08-13T04:16:31.318Z,14.80
2017-08-13T04:18:57.693Z,15.20
2017-08-13T04:21:24.050Z,14.83
2017-08-13T04:23:50.415Z,14.80
2017-08-13T04:26:16.758Z,14.90
2017-08-13T04:28:43.122Z,16.03
2017-08-13T04:31:09.494Z,15.00
2017-08-13T04:33:35.882Z,13.10
2017-08-13T04:36:02.239Z,14.77
2017-08-13T04:38:28.615Z,15.37
2017-08-13T04:40:55.029Z,16.80
2017-08-13T04:43:21.416Z,16.37
2017-08-13T04:45:47.812Z,13.13
2017-08-13T04:48:14.181Z,12.47
2017-08-13T04:50:40.587Z,16.60
2017-08-13T04:53:06.972Z,15.90
2017-08-13T04:55:33.376Z,17.97
2017-08-13T04:57:59.767Z,16.97
2017-08-13T05:00:26.117Z,17.70
2017-08-13T05:02:52.505Z,17.13
2017-08-13T05:05:18.881Z,19.30
2017-08-13T05:07:45.292Z,19.97
2017-08-13T05:10:11.706Z,16.50
2017-08-13T05:12:38.079Z,20.00
2017-08-13T05:15:04.447Z,19.90
2017-08-13T05:17:30.839Z,18.93
2017-08-13T05:19:57.240Z,21.00
2017-08-13T05:22:23.599Z,20.50
2017-08-13T05:24:49.960Z,19.57
2017-08-13T05:27:16.347Z,25.97
2017-08-13T05:29:42.699Z,26.10
2017-08-13T05:32:09.042Z,27.87
2017-08-13T05:34:35.428Z,26.80
2017-08-13T05:37:02.682Z,28.30
2017-08-13T05:39:29.073Z,24.40
2017-08-13T05:41:55.436Z,25.80
2017-08-13T05:44:21.845Z,19.47
2017-08-13T05:46:48.243Z,25.77
2017-08-13T05:49:14.625Z,19.83
2017-08-13T05:51:40.958Z,27.83
2017-08-13T05:54:07.324Z,26.30
2017-08-13T05:56:33.698Z,26.00
2017-08-13T05:59:00.462Z,27.23
2017-08-13T06:01:27.888Z,28.10
2017-08-13T06:03:54.233Z,25.43
2017-08-13T06:06:20.629Z,24.67
2017-08-13T06:08:47.020Z,29.90
2017-08-13T06:11:13.377Z,25.40
2017-08-13T06:13:39.750Z,28.10
2017-08-13T06:16:06.128Z,26.87
2017-08-13T06:18:32.525Z,28.43
2017-08-13T06:20:58.903Z,28.57
2017-08-13T06:23:25.296Z,26.07
2017-08-13T06:25:51.687Z,26.27
2017-08-13T06:28:18.088Z,24.90
2017-08-13T06:30:44.497Z,24.37
2017-08-13T06:33:10.897Z,22.70
2017-08-13T06:35:37.247Z,23.97
2017-08-13T06:38:03.603Z,23.50
2017-08-13T06:40:30.001Z,21.40
2017-08-13T06:42:56.700Z,21.47
2017-08-13T06:45:23.075Z,21.70
2017-08-13T06:47:49.511Z,22.77
2017-08-13T06:50:15.908Z,20.40
2017-08-13T06:52:42.329Z,21.47
2017-08-13T06:55:08.687Z,21.30
2017-08-13T06:57:35.073Z,19.87
2017-08-13T07:00:01.487Z,22.77
2017-08-13T07:02:27.862Z,22.00
2017-08-13T07:04:54.213Z,22.20
2017-08-13T07:07:20.571Z,24.50
2017-08-13T07:09:46.968Z,23.87
2017-08-13T07:12:13.398Z,24.10
2017-08-13T07:14:39.747Z,24.00
2017-08-13T07:17:06.143Z,27.63
2017-08-13T07:19:32.543Z,25.10
2017-08-13T07:21:58.910Z,28.30
2017-08-13T07:24:25.285Z,26.37
2017-08-13T07:26:51.659Z,27.20
2017-08-13T07:29:18.045Z,24.17
2017-08-13T07:31:44.441Z,25.87
2017-08-13T07:34:10.847Z,22.50
2017-08-13T07:36:37.242Z,22.40
2017-08-13T07:39:04.006Z,22.83
2017-08-13T07:41:30.873Z,22.13
2017-08-13T07:43:57.257Z,21.60
2017-08-13T07:46:23.667Z,21.53
2017-08-13T07:48:50.073Z,22.93
2017-08-13T07:51:16.464Z,21.70
2017-08-13T07:53:42.863Z,22.47
2017-08-13T07:56:09.227Z,24.20
2017-08-13T07:58:35.598Z,24.60
2017-08-13T08:01:02.173Z,22.90
2017-08-13T08:03:29.436Z,22.07
2017-08-13T08:05:55.888Z,22.83
2017-08-13T08:08:22.289Z,23.40
2017-08-13T08:10:48.746Z,23.13
2017-08-13T08:13:15.137Z,27.10
2017-08-13T08:15:41.532Z,25.77
2017-08-13T08:18:07.950Z,23.93
2017-08-13T08:20:34.324Z,22.63
2017-08-13T08:23:00.716Z,20.93
2017-08-13T08:25:27.106Z,18.17
2017-08-13T08:27:53.511Z,18.20
2017-08-13T08:30:19.913Z,17.97
2017-08-13T08:32:46.296Z,17.87
2017-08-13T08:35:12.677Z,16.27
2017-08-13T08:37:39.064Z,17.13
2017-08-13T08:40:05.606Z,16.57
2017-08-13T08:42:31.989Z,16.57
2017-08-13T08:44:58.375Z,15.00
2017-08-13T08:47:24.780Z,14.13
2017-08-13T08:49:51.157Z,14.57
2017-08-13T08:52:17.528Z,13.60
2017-08-13T08:54:43.920Z,12.33
2017-08-13T08:57:10.327Z,13.27
2017-08-13T08:59:36.722Z,12.50
2017-08-13T09:02:03.132Z,11.00
2017-08-13T09:04:29.491Z,12.73
2017-08-13T09:06:55.881Z,13.00
2017-08-13T09:09:22.248Z,10.43
2017-08-13T09:11:48.644Z,10.17
2017-08-13T09:14:15.035Z,9.70
2017-08-13T09:16:41.438Z,10.80
2017-08-13T09:19:07.821Z,8.30
2017-08-13T09:21:34.221Z,7.07
2017-08-13T09:24:00.614Z,6.80
2017-08-13T09:26:27.003Z,7.80
2017-08-13T09:28:53.386Z,6.23
2017-08-13T09:31:19.763Z,5.43
2017-08-13T09:33:46.145Z,6.00
2017-08-13T09:36:12.544Z,5.57
2017-08-13T09:38:38.934Z,5.77
2017-08-13T09:41:05.312Z,7.17
2017-08-13T09:43:31.686Z,7.90
2017-08-13T09:45:58.038Z,7.87
2017-08-13T09:48:24.433Z,8.77
2017-08-13T09:50:50.798Z,10.17
2017-08-13T09:53:17.186Z,9.83
2017-08-13T09:55:43.555Z,10.20
2017-08-13T09:58:09.967Z,9.77
2017-08-13T10:00:36.344Z,9.00
2017-08-13T10:03:02.744Z,8.27
2017-08-13T10:05:29.129Z,9.07
2017-08-13T10:07:55.518Z,8.43
2017-08-13T10:10:21.928Z,10.10
2017-08-13T10:12:48.329Z,8.50
2017-08-13T10:15:14.729Z,8.80
2017-08-13T10:17:41.150Z,8.80
2017-08-13T10:20:07.857Z,9.17
2017-08-13T10:22:34.256Z,11.23
2017-08-13T10:25:00.675Z,11.47
2017-08-13T10:27:27.087Z,10.53
2017-08-13T10:29:53.500Z,11.70
2017-08-13T10:32:19.901Z,10.67
2017-08-13T10:34:46.273Z,12.70
2017-08-13T10:37:12.666Z,12.53
2017-08-13T10:39:39.050Z,10.87
2017-08-13T10:42:05.429Z,12.10
2017-08-13T10:44:31.824Z,11.40
2017-08-13T10:46:58.585Z,10.87
2017-08-13T10:49:25.015Z,9.87
2017-08-13T10:51:51.410Z,9.80
2017-08-13T10:54:17.815Z,9.07
2017-08-13T10:56:44.217Z,8.70
2017-08-13T10:59:10.899Z,7.90
2017-08-13T11:01:38.168Z,8.77
2017-08-13T11:04:04.639Z,10.10
2017-08-13T11:06:31.056Z,9.53
2017-08-13T11:08:57.909Z,9.43
2017-08-13T11:11:24.309Z,8.80
2017-08-13T11:13:50.710Z,9.13
2017-08-13T11:16:17.127Z,8.93
2017-08-13T11:18:43.527Z,8.30
2017-08-13T11:21:09.950Z,8.47
2017-08-13T11:23:36.336Z,8.87
2017-08-13T11:26:02.755Z,9.50
2017-08-13T11:28:29.157Z,8.75
2017-08-13T11:30:55.568Z,10.20
2017-08-13T11:33:21.995Z,9.70
2017-08-13T11:35:48.407Z,10.23
2017-08-13T11:38:14.809Z,10.60
2017-08-13T11:40:41.268Z,9.77
2017-08-13T11:43:07.698Z,10.77
2017-08-13T11:45:34.210Z,10.37
2017-08-13T11:48:00.627Z,10.97
2017-08-13T11:50:27.004Z,10.20
2017-08-13T11:52:53.404Z,10.23
2017-08-13T11:55:19.853Z,10.17
2017-08-13T11:57:46.247Z,9.27
2017-08-13T12:00:12.667Z,8.60
2017-08-13T12:02:39.054Z,7.77
2017-08-13T12:05:05.439Z,6.77
2017-08-13T12:07:31.820Z,7.87
2017-08-13T12:09:58.384Z,5.53
2017-08-13T12:12:25.188Z,6.33
2017-08-13T12:14:51.564Z,6.77
2017-08-13T12:17:17.934Z,6.10
2017-08-13T12:19:44.344Z,5.80
2017-08-13T12:22:10.714Z,5.63
2017-08-13T12:24:37.124Z,5.60
2017-08-13T12:27:03.517Z,5.47
2017-08-13T12:29:29.913Z,5.17
2017-08-13T12:31:56.289Z,4.47
2017-08-13T12:34:22.677Z,4.23
2017-08-13T12:36:49.067Z,4.20
2017-08-13T12:39:15.450Z,4.77
2017-08-13T12:41:41.985Z,4.23
2017-08-13T12:44:08.393Z,4.00
2017-08-13T12:46:34.891Z,4.57
2017-08-13T12:49:01.300Z,5.00
2017-08-13T12:51:27.701Z,4.93
2017-08-13T12:53:54.145Z,4.20
2017-08-13T12:56:20.562Z,4.40
2017-08-13T12:58:46.961Z,4.57
2017-08-13T13:01:13.357Z,4.50
2017-08-13T13:03:39.767Z,4.60
2017-08-13T13:06:06.361Z,4.40
2017-08-13T13:08:33.336Z,4.33
2017-08-13T13:10:59.718Z,4.50
2017-08-13T13:13:26.104Z,4.70
2017-08-13T13:15:52.495Z,4.00
2017-08-13T13:18:18.884Z,3.93
2017-08-13T13:20:45.321Z,5.50
2017-08-13T13:23:11.735Z,3.80
2017-08-13T13:25:38.132Z,6.77
2017-08-13T13:28:04.547Z,4.50
2017-08-13T13:30:30.962Z,5.87
2017-08-13T13:32:57.316Z,4.03
2017-08-13T13:35:23.718Z,4.50
2017-08-13T13:37:50.107Z,3.77
2017-08-13T13:40:16.501Z,3.40
2017-08-13T13:42:42.938Z,3.37
2017-08-13T13:45:09.323Z,4.17
2017-08-13T13:47:35.730Z,3.37
2017-08-13T13:50:02.105Z,4.00
2017-08-13T13:52:28.484Z,4.00
2017-08-13T13:54:54.914Z,3.40
2017-08-13T13:57:21.302Z,3.37
2017-08-13T13:59:47.668Z,3.67
2017-08-13T14:02:14.049Z,3.60
2017-08-13T14:04:40.399Z,3.47
2017-08-13T14:07:06.798Z,3.90
2017-08-13T14:09:33.201Z,3.53
2017-08-13T14:11:59.615Z,3.73
2017-08-13T14:14:26.049Z,3.83
2017-08-13T14:16:52.425Z,4.07
2017-08-13T14:19:18.789Z,3.60
2017-08-13T14:21:45.180Z,4.10
2017-08-13T14:24:11.609Z,3.60
2017-08-13T14:26:37.984Z,3.60
2017-08-13T14:29:04.358Z,4.00
2017-08-13T14:31:30.749Z,4.60
2017-08-13T14:33:57.129Z,4.40
2017-08-13T14:36:23.531Z,4.10
2017-08-13T14:38:49.916Z,4.03
2017-08-13T14:41:16.381Z,3.55
2017-08-13T14:43:42.800Z,4.60
2017-08-13T14:46:09.209Z,4.10
2017-08-13T14:48:35.570Z,4.23
2017-08-13T14:51:01.968Z,5.13
2017-08-13T14:53:28.382Z,4.70
2017-08-13T14:55:54.738Z,4.27
2017-08-13T14:58:21.187Z,4.77
2017-08-13T15:00:47.657Z,5.13
2017-08-13T15:03:14.052Z,5.30
2017-08-13T15:05:40.452Z,4.80
2017-08-13T15:08:06.867Z,5.10
2017-08-13T15:10:33.264Z,5.30
2017-08-13T15:12:59.653Z,4.70
2017-08-13T15:15:26.052Z,4.63
2017-08-13T15:17:52.492Z,4.73
2017-08-13T15:20:18.919Z,5.00
2017-08-13T15:22:45.310Z,4.80
2017-08-13T15:25:11.711Z,5.40
2017-08-13T15:27:38.116Z,4.10
2017-08-13T15:30:04.501Z,5.20
2017-08-13T15:32:30.897Z,4.50
2017-08-13T15:34:57.281Z,4.80
2017-08-13T15:37:23.707Z,5.37
2017-08-13T15:39:50.112Z,4.43
2017-08-13T15:42:16.511Z,4.60
2017-08-13T15:44:42.907Z,4.32
2017-08-13T15:47:09.285Z,5.13
2017-08-13T15:49:35.910Z,4.70
2017-08-13T15:52:02.289Z,5.67
2017-08-13T15:54:28.689Z,5.87
2017-08-13T15:56:55.123Z,5.37
2017-08-13T15:59:21.558Z,6.50
2017-08-13T16:01:47.945Z,7.30
2017-08-13T16:04:14.373Z,6.62
2017-08-13T16:06:40.773Z,6.83
2017-08-13T16:09:07.190Z,7.63
2017-08-13T16:11:33.601Z,7.03
2017-08-13T16:13:59.982Z,6.57
2017-08-13T16:16:26.397Z,5.10
2017-08-13T16:18:52.798Z,6.00
2017-08-13T16:21:19.202Z,5.35
2017-08-13T16:23:45.583Z,5.70
2017-08-13T16:26:11.968Z,5.53
2017-08-13T16:28:38.354Z,5.87
2017-08-13T16:31:04.741Z,5.70
2017-08-13T16:33:31.144Z,5.50
2017-08-13T16:35:57.566Z,5.30
2017-08-13T16:38:23.995Z,5.80
2017-08-13T16:40:50.377Z,6.70
2017-08-13T16:43:18.102Z,6.30
2017-08-13T16:45:44.502Z,5.30
2017-08-13T16:48:10.886Z,4.97
2017-08-13T16:50:38.333Z,5.47
2017-08-13T16:53:04.771Z,5.10
2017-08-13T16:55:31.185Z,5.77
2017-08-13T16:57:57.544Z,6.10
2017-08-13T17:00:23.941Z,5.63
2017-08-13T17:02:50.566Z,5.03
2017-08-13T17:05:16.998Z,5.53
2017-08-13T17:07:44.037Z,5.17
2017-08-13T17:10:10.413Z,4.20
2017-08-13T17:12:36.775Z,5.20
2017-08-13T17:15:03.185Z,4.80
2017-08-13T17:17:29.543Z,4.43
2017-08-13T17:19:55.932Z,4.77
2017-08-13T17:22:22.317Z,4.00
2017-08-13T17:24:48.709Z,4.13
2017-08-13T17:27:15.103Z,3.10
2017-08-13T17:29:41.484Z,3.40
2017-08-13T17:32:07.879Z,3.03
2017-08-13T17:34:34.291Z,3.43
2017-08-13T17:37:00.687Z,3.17
2017-08-13T17:39:27.099Z,3.30
2017-08-13T17:41:53.466Z,3.70
2017-08-13T17:44:19.815Z,2.67
2017-08-13T17:46:46.199Z,2.57
2017-08-13T17:49:12.612Z,2.67
2017-08-13T17:51:39.010Z,2.90
2017-08-13T17:54:05.746Z,2.83
2017-08-13T17:56:32.749Z,3.50
2017-08-13T17:58:59.272Z,3.10
2017-08-13T18:01:29.084Z,3.40
2017-08-13T18:04:01.225Z,2.97
2017-08-13T18:06:32.335Z,3.77
2017-08-13T18:09:03.049Z,2.63
2017-08-13T18:11:33.237Z,2.73
2017-08-13T18:14:05.393Z,3.50
2017-08-13T18:16:36.149Z,4.10
2017-08-13T18:19:04.428Z,3.63
2017-08-13T18:21:30.909Z,3.50
2017-08-13T18:23:57.354Z,3.53
2017-08-13T18:26:23.746Z,4.33
2017-08-13T18:28:52.058Z,3.33
2017-08-13T18:31:19.735Z,3.87
2017-08-13T18:33:46.659Z,4.03
2017-08-13T18:36:13.048Z,5.00
2017-08-13T18:38:39.936Z,4.30
2017-08-13T18:41:06.395Z,4.80
2017-08-13T18:43:32.805Z,4.47
2017-08-13T18:46:00.232Z,4.20
2017-08-13T18:48:27.221Z,4.07
2017-08-13T18:50:53.629Z,3.70
2017-08-13T18:53:20.532Z,4.07
2017-08-13T18:55:47.507Z,3.93
2017-08-13T18:58:14.230Z,3.87
2017-08-13T19:00:40.903Z,7.83
2017-08-13T19:03:07.542Z,10.57
2017-08-13T19:05:33.995Z,9.00
2017-08-13T19:08:00.444Z,6.47
2017-08-13T19:10:26.913Z,7.93
2017-08-13T19:12:53.736Z,6.43
2017-08-13T19:15:20.974Z,3.97
2017-08-13T19:17:47.969Z,8.27
2017-08-13T19:20:14.477Z,10.97
2017-08-13T19:22:41.101Z,6.77
2017-08-13T19:25:07.992Z,6.97
2017-08-13T19:27:34.407Z,6.67
2017-08-13T19:30:00.804Z,5.90
2017-08-13T19:32:27.206Z,6.33
2017-08-13T19:34:53.599Z,7.77
2017-08-13T19:37:20.535Z,8.10
2017-08-13T19:39:47.368Z,7.47
2017-08-13T19:42:13.792Z,6.80
2017-08-13T19:44:40.144Z,9.10
2017-08-13T19:47:06.595Z,12.90
2017-08-13T19:49:32.991Z,11.20
2017-08-13T19:51:59.396Z,13.47
2017-08-13T19:54:26.380Z,10.67
2017-08-13T19:56:52.799Z,10.37
2017-08-13T19:59:24.205Z,9.40
2017-08-13T20:01:53.966Z,8.87
2017-08-13T20:04:25.227Z,10.00
2017-08-13T20:06:55.463Z,8.63
2017-08-13T20:09:21.971Z,9.80
2017-08-13T20:11:48.377Z,10.93
2017-08-13T20:14:15.225Z,10.73
2017-08-13T20:16:41.776Z,6.53
2017-08-13T20:19:08.438Z,8.10
2017-08-13T20:21:35.418Z,8.03
2017-08-13T20:24:02.276Z,8.13
2017-08-13T20:26:28.766Z,8.17
2017-08-13T20:28:55.703Z,7.30
2017-08-13T20:31:22.480Z,7.60
2017-08-13T20:33:49.394Z,10.00
2017-08-13T20:36:15.825Z,10.80
2017-08-13T20:38:42.315Z,11.93
2017-08-13T20:41:08.709Z,13.70
2017-08-13T20:43:35.239Z,9.27
2017-08-13T20:46:01.801Z,8.10
2017-08-13T20:48:28.236Z,8.03
2017-08-13T20:50:54.786Z,8.10
2017-08-13T20:53:21.159Z,13.50
2017-08-13T20:55:47.797Z,13.43
2017-08-13T20:58:14.825Z,13.93
2017-08-13T21:00:41.307Z,11.50
2017-08-13T21:03:07.752Z,21.90
2017-08-13T21:05:34.223Z,17.90
2017-08-13T21:08:00.622Z,18.70
2017-08-13T21:10:27.533Z,12.60
2017-08-13T21:12:54.429Z,12.80
2017-08-13T21:15:23.805Z,13.10
2017-08-13T21:17:50.371Z,9.63
2017-08-13T21:20:16.778Z,9.27
2017-08-13T21:22:43.181Z,9.90
2017-08-13T21:25:09.564Z,9.03
2017-08-13T21:27:35.956Z,7.30
2017-08-13T21:30:02.520Z,8.40
2017-08-13T21:32:29.463Z,8.63
2017-08-13T21:34:56.387Z,8.37
2017-08-13T21:37:23.272Z,8.97
2017-08-13T21:39:49.655Z,19.10
2017-08-13T21:42:16.072Z,23.77
2017-08-13T21:44:42.505Z,15.93
2017-08-13T21:47:08.869Z,12.50
2017-08-13T21:49:35.974Z,11.30
2017-08-13T21:52:02.372Z,11.83
2017-08-13T21:54:29.357Z,11.30
2017-08-13T21:56:55.795Z,9.17
2017-08-13T21:59:22.367Z,8.80
2017-08-13T22:01:48.790Z,9.00
2017-08-13T22:04:15.402Z,8.20
2017-08-13T22:06:43.097Z,7.77
2017-08-13T22:09:09.537Z,7.70
2017-08-13T22:11:36.241Z,6.90
2017-08-13T22:14:03.057Z,6.23
2017-08-13T22:16:29.930Z,7.20
2017-08-13T22:18:56.380Z,6.50
2017-08-13T22:21:23.858Z,7.47
2017-08-13T22:23:50.293Z,6.67
2017-08-13T22:26:16.660Z,7.20
2017-08-13T22:28:43.049Z,6.67
2017-08-13T22:31:10.123Z,6.30
2017-08-13T22:33:36.533Z,6.90
2017-08-13T22:36:02.913Z,6.50
2017-08-13T22:38:29.333Z,6.70
2017-08-13T22:40:55.715Z,6.10
2017-08-13T22:43:22.081Z,5.90
2017-08-13T22:45:48.462Z,6.17
2017-08-13T22:48:14.851Z,6.40
2017-08-13T22:50:41.489Z,6.80
2017-08-13T22:53:08.454Z,6.40
2017-08-13T22:55:35.182Z,7.00
2017-08-13T22:58:01.547Z,6.23
2017-08-13T23:00:28.213Z,6.43
2017-08-13T23:02:54.634Z,6.93
2017-08-13T23:05:21.055Z,6.93
2017-08-13T23:07:47.463Z,7.30
2017-08-13T23:10:13.916Z,6.70
2017-08-13T23:12:40.298Z,7.17
2017-08-13T23:15:06.736Z,6.67
2017-08-13T23:17:33.178Z,6.80
2017-08-13T23:19:59.588Z,7.70
2017-08-13T23:22:25.990Z,6.47
2017-08-13T23:24:52.388Z,6.47
2017-08-13T23:27:18.769Z,6.80
2017-08-13T23:29:45.159Z,6.30
2017-08-13T23:32:11.538Z,6.37
2017-08-13T23:34:37.952Z,6.73
2017-08-13T23:37:04.350Z,8.10
2017-08-13T23:39:30.757Z,6.30
2017-08-13T23:41:57.158Z,6.53
2017-08-13T23:44:23.564Z,5.93
2017-08-13T23:46:49.944Z,6.40
2017-08-13T23:49:16.302Z,7.70
2017-08-13T23:51:42.666Z,8.00
2017-08-13T23:54:09.037Z,8.17
2017-08-13T23:56:35.425Z,9.27
2017-08-13T23:59:01.793Z,7.57
